»·PEaware :: N1927H CAJ3-KSKA

N1927H :: CAJ3-KSKA

FLIGHT INFORMATION

Flight Status: Arrived
Operator: Privately registered:
United States
More flights under this callsign
Pilot: Wayne R. (17783)
Aircraft: PIPER PA-28R-201 ARROW
(P28R)
More flights by this aircraft type
Origin: CAJ3 Creston
Canada
Destination: KSKA Fairchild AFB
United States
More flights between these airports :: More routes between these airports
Route: DIANN V112 GEG
File this flight plan on PilotEdge
Remarks:
Altitude:
(Current/Filed)
12,000ft
Speed:
(Current/Filed)
130kts
Departed: 07-Mar-20 04:16 PM
Arrived: 07-Mar-20 05:38 PM
Distance/Time
Traveled:
96nm/1:22
Distance/Time
To Go:
Arrived

Flight Plot

Page will automatically refresh every two minutes.


Map Options




Map Legend


Flown Route
Filed Route
Departure Airport
Arrival Airport
Navaid (VOR, NDB)
Fix

Horizontal Profiles

Position Reports

Time Latitude Longitude Heading Altitude Ground
Speed
07-Mar-20 16:15 49.035908 -116.497887 347 2089ft 0kts
07-Mar-20 16:16 49.050148 -116.500950 343 2403ft 79kts
07-Mar-20 16:17 49.074367 -116.510888 314 3139ft 95kts
07-Mar-20 16:17 49.092390 -116.530693 326 3800ft 93kts
07-Mar-20 16:19 49.116105 -116.551803 323 4831ft 74kts
07-Mar-20 16:20 49.136512 -116.569917 327 5262ft 101kts
07-Mar-20 16:21 49.162964 -116.592748 327 5597ft 111kts
07-Mar-20 16:22 49.188308 -116.614835 326 6182ft 100kts
07-Mar-20 16:22 49.207864 -116.632097 325 6676ft 95kts
07-Mar-20 16:23 49.230903 -116.652384 324 7275ft 95kts
07-Mar-20 16:25 49.257541 -116.675877 323 7987ft 93kts
07-Mar-20 16:25 49.276127 -116.692250 323 8494ft 91kts
07-Mar-20 16:26 49.297698 -116.711311 322 9103ft 87kts
07-Mar-20 16:27 49.318605 -116.729817 322 9645ft 89kts
07-Mar-20 16:28 49.342488 -116.744754 331 10103ft 95kts
07-Mar-20 16:29 49.367492 -116.758008 330 10563ft 95kts
07-Mar-20 16:30 49.391000 -116.747519 60 10984ft 130kts
07-Mar-20 16:31 49.402232 -116.694934 61 11440ft 128kts
07-Mar-20 16:32 49.412746 -116.643894 61 11885ft 124kts
07-Mar-20 16:33 49.424676 -116.588759 61 11975ft 145kts
07-Mar-20 16:34 49.421810 -116.522705 94 11973ft 161kts
07-Mar-20 16:35 49.415325 -116.453738 94 11973ft 164kts
07-Mar-20 16:36 49.408834 -116.384316 94 11979ft 164kts
07-Mar-20 16:37 49.384681 -116.324971 127 11971ft 166kts
07-Mar-20 16:38 49.356956 -116.270011 159 11952ft 160kts
07-Mar-20 16:39 49.317525 -116.272623 221 11973ft 131kts
07-Mar-20 16:40 49.286065 -116.300626 219 11976ft 133kts
07-Mar-20 16:41 49.253263 -116.326632 218 11987ft 132kts
07-Mar-20 16:42 49.220497 -116.352514 218 11978ft 133kts
07-Mar-20 16:43 49.187688 -116.378449 218 11991ft 132kts
07-Mar-20 16:44 49.154989 -116.404254 218 11983ft 133kts
07-Mar-20 16:45 49.122263 -116.430219 220 11985ft 131kts
07-Mar-20 16:46 49.089183 -116.455437 217 11986ft 133kts
07-Mar-20 16:47 49.056036 -116.480440 217 11989ft 132kts
07-Mar-20 16:48 49.022884 -116.505407 217 11991ft 133kts
07-Mar-20 16:49 48.989632 -116.530450 216 11997ft 133kts
07-Mar-20 16:50 48.955358 -116.552938 214 12003ft 135kts
07-Mar-20 16:51 48.920975 -116.575433 214 12004ft 134kts
07-Mar-20 16:52 48.887313 -116.599491 217 12007ft 133kts
07-Mar-20 16:53 48.854141 -116.624420 217 11988ft 133kts
07-Mar-20 16:54 48.821005 -116.649286 217 11977ft 133kts
07-Mar-20 16:55 48.787759 -116.674248 216 11984ft 132kts
07-Mar-20 16:56 48.754586 -116.699095 216 11977ft 134kts
07-Mar-20 16:57 48.721970 -116.725176 218 11987ft 132kts
07-Mar-20 16:58 48.689625 -116.751586 219 11982ft 133kts
07-Mar-20 16:59 48.657198 -116.778075 219 11994ft 132kts
07-Mar-20 17:00 48.624809 -116.804472 219 11995ft 132kts
07-Mar-20 17:01 48.592387 -116.830909 219 11999ft 132kts
07-Mar-20 17:02 48.560081 -116.857213 219 12004ft 132kts
07-Mar-20 17:03 48.527628 -116.883668 219 12004ft 132kts
07-Mar-20 17:04 48.495261 -116.910007 219 12008ft 132kts
07-Mar-20 17:05 48.462853 -116.936373 219 12003ft 132kts
07-Mar-20 17:06 48.430540 -116.962628 219 12000ft 132kts
07-Mar-20 17:07 48.398076 -116.989012 219 11987ft 132kts
07-Mar-20 17:08 48.365725 -117.015274 219 11992ft 132kts
07-Mar-20 17:09 48.333324 -117.041601 219 11978ft 132kts
07-Mar-20 17:10 48.301034 -117.067804 219 11986ft 132kts
07-Mar-20 17:11 48.268649 -117.094082 219 11967ft 133kts
07-Mar-20 17:12 48.236297 -117.120286 219 11997ft 131kts
07-Mar-20 17:13 48.203988 -117.146447 219 11991ft 133kts
07-Mar-20 17:14 48.171617 -117.172605 219 12035ft 131kts
07-Mar-20 17:15 48.139049 -117.198402 217 11914ft 134kts
07-Mar-20 17:16 48.105912 -117.222902 217 11814ft 131kts
07-Mar-20 17:17 48.072837 -117.247424 217 11579ft 135kts
07-Mar-20 17:18 48.039939 -117.271737 217 11074ft 131kts
07-Mar-20 17:19 48.007484 -117.295993 217 10474ft 130kts
07-Mar-20 17:20 47.976054 -117.319705 217 10053ft 121kts
07-Mar-20 17:21 47.947941 -117.340061 217 9966ft 101kts
07-Mar-20 17:22 47.922470 -117.357812 217 9971ft 110kts
07-Mar-20 17:23 47.892291 -117.380972 217 9968ft 129kts
07-Mar-20 17:24 47.859761 -117.404785 193 9771ft 143kts
07-Mar-20 17:25 47.820247 -117.399119 159 9199ft 150kts
07-Mar-20 17:26 47.783975 -117.372142 158 8431ft 142kts
07-Mar-20 17:27 47.747751 -117.357698 178 7515ft 132kts
07-Mar-20 17:28 47.711845 -117.349896 195 6712ft 124kts
07-Mar-20 17:29 47.693341 -117.384818 253 6009ft 113kts
07-Mar-20 17:30 47.680863 -117.427999 252 5116ft 111kts
07-Mar-20 17:31 47.669027 -117.469142 252 4353ft 107kts
07-Mar-20 17:32 47.657615 -117.508639 251 3749ft 98kts
07-Mar-20 17:33 47.647330 -117.544206 251 3430ft 87kts
07-Mar-20 17:34 47.638068 -117.575188 253 3099ft 78kts
07-Mar-20 17:35 47.629439 -117.604223 240 2789ft 79kts
07-Mar-20 17:36 47.621764 -117.632147 254 2420ft 57kts
07-Mar-20 17:37 47.622945 -117.640387 331 2430ft 22kts

Navigation Log

Ident Type
Flight plan parsing failed, navigation log unavailable